Time;durP1;ratioP1;P1;durP2;ratioP2;P2;SDS_P1;SDS_P2;PMS_P1;PMS_P2;Temp;Humidity;BMP_temperature;BMP_pressure;BME280_temperature;BME280_humidity;BME280_pressure;Samples;Min_cycle;Max_cycle;Signal;HPM_P1;HPM_P2
2024/01/25 04:59:26;;;;;;;1999.90;647.05;;;;;;;7.15;100.00;69364.53;5463111;27;20443;-86
2024/01/25 05:02:31;;;;;;;1999.90;523.22;;;;;;;7.01;100.00;69290.44;5391599;32;34725;-85
2024/01/25 05:05:34;;;;;;;1999.90;528.67;;;;;;;7.03;100.00;69296.00;5402634;32;34045;-85
2024/01/25 05:08:36;;;;;;;1999.90;614.50;;;;;;;7.12;100.00;69302.59;5402617;32;33611;-85
2024/01/25 05:11:40;;;;;;;1999.90;573.83;;;;;;;7.06;100.00;69298.88;5417011;32;34064;-86
2024/01/25 05:14:43;;;;;;;1999.90;625.05;;;;;;;6.97;100.00;69286.38;5391293;32;35369;-86
2024/01/25 05:17:46;;;;;;;1999.90;522.22;;;;;;;6.97;100.00;69288.47;5418625;32;34140;-85
2024/01/25 05:20:49;;;;;;;1999.90;490.58;;;;;;;7.09;100.00;69357.56;5394961;32;34189;-85
2024/01/25 05:23:52;;;;;;;1999.90;520.20;;;;;;;7.20;100.00;69311.88;5419471;32;33616;-85
2024/01/25 05:26:56;;;;;;;1999.90;554.08;;;;;;;7.23;100.00;69318.59;5391873;32;33726;-85
2024/01/25 05:29:59;;;;;;;1999.90;533.15;;;;;;;7.13;100.00;69362.22;5402371;32;33658;-85
2024/01/25 05:33:02;;;;;;;1999.90;612.83;;;;;;;7.26;100.00;69319.41;5415787;32;34106;-85
2024/01/25 05:36:05;;;;;;;1999.90;542.63;;;;;;;7.26;100.00;69318.84;5415823;32;34269;-85
2024/01/25 05:39:09;;;;;;;1999.90;511.62;;;;;;;7.31;100.00;69329.94;5390483;32;33902;-85
2024/01/25 05:42:12;;;;;;;1999.90;563.67;;;;;;;7.47;100.00;69401.66;5418586;32;33683;-84
2024/01/25 05:45:15;;;;;;;1999.90;502.48;;;;;;;7.46;100.00;69400.50;5416386;32;33874;-84
2024/01/25 05:48:20;;;;;;;1999.90;514.17;;;;;;;7.32;100.00;69383.69;5402682;32;34735;-84
2024/01/25 05:51:23;;;;;;;1999.90;500.35;;;;;;;7.43;100.00;69337.94;5378794;32;34611;-85
2024/01/25 05:54:26;;;;;;;1999.90;518.65;;;;;;;7.46;100.00;69347.34;5403220;32;34041;-85
2024/01/25 05:57:32;;;;;;;1999.90;545.90;;;;;;;7.38;100.00;69390.63;5391402;32;34117;-85
2024/01/25 06:00:37;;;;;;;1999.90;564.28;;;;;;;7.29;100.00;69322.31;5402652;32;34368;-89
2024/01/25 06:03:40;;;;;;;1999.90;494.80;;;;;;;7.29;100.00;69324.97;5390213;32;34060;-90
2024/01/25 06:06:44;;;;;;;1999.90;533.22;;;;;;;7.33;100.00;69326.38;5402388;32;34001;-90
2024/01/25 06:09:48;;;;;;;1999.90;539.53;;;;;;;7.31;100.00;69324.63;5377717;32;34126;-86
2024/01/25 06:12:51;;;;;;;1999.90;462.77;;;;;;;7.32;100.00;69328.44;5415542;32;33974;-86
2024/01/25 06:15:54;;;;;;;1974.75;463.83;;;;;;;7.20;100.00;69370.91;5402215;32;34058;-85
2024/01/25 06:19:00;;;;;;;1999.90;478.83;;;;;;;7.19;100.00;69311.28;5401879;32;33900;-85
2024/01/25 06:22:03;;;;;;;1999.90;463.00;;;;;;;7.15;100.00;69306.09;5402018;32;33671;-85
2024/01/25 06:25:07;;;;;;;1999.90;538.90;;;;;;;7.16;100.00;69309.91;5415863;32;33767;-84
2024/01/25 06:28:11;;;;;;;1999.90;527.90;;;;;;;7.17;100.00;69366.84;5403118;32;34126;-85
2024/01/25 06:31:14;;;;;;;1999.90;571.53;;;;;;;7.15;100.00;69308.75;5402960;32;33985;-85
2024/01/25 06:34:17;;;;;;;1999.90;545.10;;;;;;;7.09;100.00;69302.38;5414284;32;33761;-84
2024/01/25 06:37:21;;;;;;;1999.90;506.92;;;;;;;7.09;100.00;69299.13;5401739;32;33978;-85
2024/01/25 06:40:26;;;;;;;1999.90;523.83;;;;;;;7.15;100.00;69306.09;5378160;32;34164;-85
2024/01/25 06:43:29;;;;;;;1999.90;507.35;;;;;;;7.15;100.00;69367.19;5402232;32;33949;-84
2024/01/25 06:46:32;;;;;;;1999.90;499.52;;;;;;;7.24;100.00;69319.75;5389774;32;34706;-84
2024/01/25 06:49:35;;;;;;;1999.90;516.90;;;;;;;7.23;100.00;69318.03;5414432;32;34084;-84
2024/01/25 06:52:39;;;;;;;1999.90;513.95;;;;;;;7.25;100.00;69322.97;5401711;32;34501;-84
2024/01/25 06:55:42;;;;;;;1999.90;496.20;;;;;;;7.19;100.00;69372.41;5402001;32;34258;-84
2024/01/25 06:58:45;;;;;;;1999.90;546.10;;;;;;;7.31;100.00;69324.63;5416714;32;34025;-85
2024/01/25 07:01:48;;;;;;;1999.90;557.95;;;;;;;7.38;100.00;69334.81;5403664;32;34023;-85
2024/01/25 07:04:53;;;;;;;1999.90;509.20;;;;;;;7.32;100.00;69325.22;5403724;32;33894;-85
2024/01/25 07:07:57;;;;;;;1999.90;468.50;;;;;;;7.39;100.00;69392.38;5402992;32;34640;-85
2024/01/25 07:11:01;;;;;;;1999.90;589.40;;;;;;;7.45;100.00;69398.75;5389751;32;34041;-83
2024/01/25 07:14:04;;;;;;;1999.90;529.62;;;;;;;7.56;100.00;69355.09;5402254;32;34390;-84
2024/01/25 07:17:10;;;;;;;1999.90;439.25;;;;;;;7.61;100.00;69363.56;5387101;33;34022;-84
2024/01/25 07:20:13;;;;;;;1999.90;448.67;;;;;;;7.68;100.00;69369.59;5393219;33;33887;-83
2024/01/25 07:23:17;;;;;;;1999.90;510.75;;;;;;;7.84;100.00;69443.44;5385468;33;33655;-84
2024/01/25 07:26:21;;;;;;;1999.90;489.50;;;;;;;7.97;100.00;69401.50;5376714;32;34038;-84
2024/01/25 07:29:24;;;;;;;1999.90;543.92;;;;;;;8.21;100.00;69485.22;5372583;33;34224;-85
2024/01/25 07:32:28;;;;;;;1999.90;456.27;;;;;;;8.41;100.00;69449.31;5374903;33;34566;-84
2024/01/25 07:35:32;;;;;;;1845.65;390.15;;;;;;;8.83;100.00;69499.53;5383653;33;33608;-85
2024/01/25 07:38:35;;;;;;;1981.93;438.30;;;;;;;8.94;96.74;69509.63;5384222;33;33840;-85
2024/01/25 07:41:38;;;;;;;1999.90;513.58;;;;;;;8.96;95.84;69570.00;5408521;32;33955;-84
2024/01/25 07:44:41;;;;;;;1999.90;459.17;;;;;;;8.75;95.94;69546.22;5401637;32;33584;-85
2024/01/25 07:47:44;;;;;;;1999.90;484.58;;;;;;;8.70;96.50;69543.63;5376695;32;33942;-85
2024/01/25 07:50:47;;;;;;;1999.90;458.75;;;;;;;8.66;95.78;69536.34;5407066;32;34160;-85
2024/01/25 07:53:50;;;;;;;1484.20;332.35;;;;;;;8.75;93.71;69546.78;5427194;32;35400;-85
2024/01/25 07:56:53;;;;;;;1747.35;383.67;;;;;;;8.82;92.65;69495.72;5391947;32;33748;-85
2024/01/25 07:59:56;;;;;;;1999.90;447.05;;;;;;;8.79;92.33;69495.47;5388197;33;34058;-85
2024/01/25 08:02:59;;;;;;;1999.90;445.85;;;;;;;8.79;91.26;69551.41;5384289;32;33925;-85
2024/01/25 08:06:03;;;;;;;1752.93;369.23;;;;;;;8.80;90.95;69496.66;5399338;32;34965;-85
2024/01/25 08:09:06;;;;;;;1638.72;393.52;;;;;;;8.79;88.99;69495.47;5384467;33;34417;-85
2024/01/25 08:12:10;;;;;;;1887.90;431.40;;;;;;;8.86;89.40;69505.69;5399231;33;34283;-88
2024/01/25 08:15:21;;;;;;;1641.40;358.67;;;;;;;8.90;88.39;69563.03;5385707;33;34667;-91
2024/01/25 08:18:24;;;;;;;1584.28;345.33;;;;;;;8.92;87.02;69509.41;5399890;33;33989;-86
2024/01/25 08:21:26;;;;;;;1603.57;326.35;;;;;;;8.96;85.60;69572.69;5385047;33;34594;-86
2024/01/25 08:24:34;;;;;;;1855.05;425.25;;;;;;;9.09;83.75;69585.69;5388569;32;33672;-85
2024/01/25 08:27:41;;;;;;;1817.50;401.23;;;;;;;9.15;83.65;69594.75;5419113;32;33713;-85
2024/01/25 08:30:51;;;;;;;1999.90;446.50;;;;;;;9.33;82.19;69556.44;5405408;32;32951;-85
2024/01/25 08:33:53;;;;;;;1273.15;304.75;;;;;;;9.42;81.39;69566.88;5403166;32;33949;-85
2024/01/25 08:36:58;;;;;;;1438.55;328.05;;;;;;;9.44;81.66;69566.53;5403203;32;34791;-85
2024/01/25 08:40:01;;;;;;;1710.55;362.17;;;;;;;9.56;80.14;69638.56;5412129;32;34679;-83
2024/01/25 08:43:04;;;;;;;1490.18;338.25;;;;;;;9.70;79.46;69654.84;5403904;32;33905;-83
2024/01/25 08:46:08;;;;;;;1355.22;313.15;;;;;;;9.59;79.57;69642.03;5383712;32;34140;-82
2024/01/25 08:49:12;;;;;;;1602.72;355.75;;;;;;;9.62;80.40;69644.94;5402886;32;33995;-83
2024/01/25 08:52:15;;;;;;;1285.15;314.35;;;;;;;9.69;78.90;69597.06;5401434;32;33592;-83
2024/01/25 08:55:18;;;;;;;1690.90;375.48;;;;;;;9.80;77.29;69663.22;5389498;32;33987;-83
2024/01/25 08:58:22;;;;;;;1512.65;336.83;;;;;;;9.87;77.20;69617.41;5397078;32;34264;-82
2024/01/25 09:01:25;;;;;;;1999.90;453.38;;;;;;;9.91;76.84;69678.66;5420949;32;33718;-82
2024/01/25 09:04:28;;;;;;;1687.75;355.27;;;;;;;9.81;74.91;69611.00;5389792;32;33922;-83
2024/01/25 09:07:31;;;;;;;1451.97;327.58;;;;;;;9.75;74.60;69604.63;5384632;33;34950;-82
2024/01/25 09:10:34;;;;;;;1657.45;360.75;;;;;;;9.80;76.39;69665.88;5400762;33;33603;-83
2024/01/25 09:13:40;;;;;;;1446.03;327.13;;;;;;;9.84;75.44;69667.28;5376180;32;34624;-82
2024/01/25 09:16:48;;;;;;;1505.32;341.10;;;;;;;9.96;75.64;69683.91;5388041;32;34231;-83
2024/01/25 09:19:52;;;;;;;1903.07;417.50;;;;;;;10.02;73.61;69690.88;5408596;32;33833;-82
2024/01/25 09:22:55;;;;;;;1770.97;379.25;;;;;;;9.83;73.38;69666.72;5387004;33;34809;-84
2024/01/25 09:25:58;;;;;;;1770.43;384.90;;;;;;;9.88;74.00;69618.56;5396369;33;34335;-83
2024/01/25 09:29:01;;;;;;;1586.50;351.45;;;;;;;9.90;74.48;69676.94;5388836;32;34001;-82
2024/01/25 09:32:09;;;;;;;1518.07;332.40;;;;;;;9.91;72.97;69675.41;5396064;32;33929;-82
2024/01/25 09:35:12;;;;;;;1483.13;339.42;;;;;;;10.07;72.91;69637.97;5401092;32;33874;-80
2024/01/25 09:38:16;;;;;;;1921.55;448.15;;;;;;;10.00;72.35;69688.53;5414531;32;35822;-81
2024/01/25 09:41:19;;;;;;;1658.45;354.30;;;;;;;10.11;70.62;69703.44;5400874;32;33622;-82
2024/01/25 09:44:24;;;;;;;1975.18;388.98;;;;;;;10.03;70.64;69694.69;5400378;32;33702;-82
2024/01/25 09:47:28;;;;;;;1512.25;320.70;;;;;;;9.92;71.05;69679.25;5399519;32;33687;-82
2024/01/25 09:50:33;;;;;;;1274.13;302.23;;;;;;;10.08;72.31;69697.84;5385386;32;34754;-82
2024/01/25 09:53:37;;;;;;;1560.10;379.23;;;;;;;10.09;72.49;69642.38;5390617;32;33885;-82
2024/01/25 09:56:42;;;;;;;1654.47;372.08;;;;;;;10.05;70.84;69638.31;5402384;32;33516;-82
2024/01/25 09:59:45;;;;;;;1616.75;332.70;;;;;;;9.86;71.89;69672.88;5415497;32;34492;-86
2024/01/25 10:02:52;;;;;;;1531.07;327.27;;;;;;;9.67;73.05;69650.78;5408002;32;34167;-86
2024/01/25 10:05:55;;;;;;;1550.07;362.08;;;;;;;9.58;74.23;69584.31;5401880;32;34423;-83
2024/01/25 10:08:58;;;;;;;1680.45;407.55;;;;;;;9.62;74.46;69588.94;5389624;32;33831;-83
2024/01/25 10:12:01;;;;;;;1832.13;409.33;;;;;;;9.91;74.59;69622.03;5401794;32;33837;-83
2024/01/25 10:15:19;;;;;;;1979.78;434.42;;;;;;;9.94;71.72;69678.91;5411109;32;34662;-83
2024/01/25 10:18:23;;;;;;;1687.40;382.35;;;;;;;9.95;69.91;69686.00;5408969;32;156972;-82
2024/01/25 10:21:32;;;;;;;1621.00;394.65;;;;;;;9.82;69.21;69612.16;5402007;32;33693;-82
2024/01/25 10:24:36;;;;;;;1682.93;397.23;;;;;;;9.88;70.98;69675.19;5395353;32;34359;-82
2024/01/25 10:27:40;;;;;;;1448.60;332.15;;;;;;;9.97;68.40;69685.66;5386516;32;33695;-82
2024/01/25 10:30:44;;;;;;;1727.88;386.77;;;;;;;10.05;69.08;69637.72;5398775;32;34651;-82
2024/01/25 10:33:47;;;;;;;1999.90;454.27;;;;;;;10.11;69.55;69644.69;5415509;32;34157;-82
2024/01/25 10:36:52;;;;;;;1826.60;429.77;;;;;;;10.18;68.95;69709.50;5398884;32;34379;-82
2024/01/25 10:39:55;;;;;;;1405.63;336.37;;;;;;;10.23;67.35;69658.63;5418670;32;34448;-83
2024/01/25 10:43:01;;;;;;;1568.45;344.42;;;;;;;10.24;67.00;69718.56;5416444;32;35409;-82
2024/01/25 10:46:05;;;;;;;1339.28;329.90;;;;;;;10.38;66.75;69676.09;5401371;32;34421;-82
2024/01/25 10:49:08;;;;;;;1552.57;366.65;;;;;;;10.34;66.24;69671.44;5388293;32;34178;-82
2024/01/25 10:52:13;;;;;;;1522.93;356.65;;;;;;;10.50;66.91;69745.56;5404455;32;33611;-82
2024/01/25 10:55:16;;;;;;;1940.85;428.88;;;;;;;10.35;66.50;69669.94;5401608;32;33907;-82
2024/01/25 10:58:20;;;;;;;1678.18;390.45;;;;;;;10.43;65.83;69740.09;5400088;32;34680;-82
2024/01/25 11:01:23;;;;;;;1735.30;390.65;;;;;;;10.25;66.74;69660.97;5400293;32;35426;-82
2024/01/25 11:04:29;;;;;;;1514.22;367.67;;;;;;;10.19;66.50;69710.66;5400887;32;33937;-81
2024/01/25 11:07:41;;;;;;;1655.97;392.25;;;;;;;10.14;66.87;69648.19;5416182;32;33646;-82
2024/01/25 11:10:51;;;;;;;1793.35;383.62;;;;;;;10.14;64.78;69651.44;5403942;32;34484;-82
2024/01/25 11:13:55;;;;;;;1711.47;386.50;;;;;;;10.08;65.30;69641.22;5419025;32;34318;-82
2024/01/25 11:16:58;;;;;;;1589.53;373.17;;;;;;;10.09;65.04;69642.97;5393894;32;33566;-81
2024/01/25 11:20:03;;;;;;;1592.43;413.45;;;;;;;10.26;65.07;69659.44;5419401;32;34339;-82
2024/01/25 11:23:09;;;;;;;1746.43;404.75;;;;;;;10.28;63.15;69719.97;5418608;32;33373;-83
2024/01/25 11:26:12;;;;;;;1658.93;377.13;;;;;;;10.27;63.18;69665.41;5391479;32;34058;-82
2024/01/25 11:29:20;;;;;;;1565.72;361.87;;;;;;;10.31;62.22;69723.47;5390648;32;34111;-83
2024/01/25 11:32:23;;;;;;;1934.18;436.38;;;;;;;10.20;63.59;69655.16;5416929;32;34024;-86
2024/01/25 11:35:27;;;;;;;1521.32;346.23;;;;;;;10.26;64.29;69662.13;5405653;32;33910;-87
2024/01/25 11:38:30;;;;;;;1736.68;404.58;;;;;;;10.45;63.61;69683.66;5405958;32;33525;-86
2024/01/25 11:41:33;;;;;;;1516.55;352.45;;;;;;;10.52;63.06;69747.31;5390815;32;34054;-83
2024/01/25 11:44:36;;;;;;;1858.75;421.77;;;;;;;10.52;63.46;69694.47;5391912;32;34187;-82
2024/01/25 11:47:40;;;;;;;1822.20;409.13;;;;;;;10.85;61.17;69787.78;5403043;32;33968;-83
2024/01/25 11:50:43;;;;;;;1562.45;365.45;;;;;;;10.98;59.82;69799.66;5417297;32;33970;-82
2024/01/25 11:53:49;;;;;;;1379.05;349.70;;;;;;;11.09;59.54;69756.91;5415805;32;33916;-83
2024/01/25 11:56:53;;;;;;;1362.47;339.23;;;;;;;11.29;59.79;69835.75;5400483;32;33616;-82
2024/01/25 11:59:57;;;;;;;1564.22;379.52;;;;;;;11.74;57.36;69833.44;5402524;32;34030;-82
2024/01/25 12:03:09;;;;;;;1335.68;368.77;;;;;;;11.45;57.13;69856.47;5410315;32;33977;-82
2024/01/25 12:06:12;;;;;;;1381.57;349.15;;;;;;;11.43;55.91;69795.25;5399946;32;34295;-82
2024/01/25 12:09:16;;;;;;;1554.18;376.40;;;;;;;11.69;55.92;69881.13;5403320;32;33971;-82
2024/01/25 12:12:19;;;;;;;1563.63;381.25;;;;;;;11.95;53.87;69854.06;5403450;32;33758;-81
2024/01/25 12:15:22;;;;;;;1527.97;376.67;;;;;;;12.30;52.55;69953.16;5392164;32;33938;-82
2024/01/25 12:18:28;;;;;;;1522.90;322.75;;;;;;;12.23;53.70;69889.31;5402601;32;34617;-82
2024/01/25 12:21:33;;;;;;;1412.03;379.75;;;;;;;12.10;53.03;69871.50;5402095;32;33588;-82
2024/01/25 12:24:37;;;;;;;1650.70;387.33;;;;;;;12.68;51.38;69937.84;5414679;32;34425;-82
2024/01/25 12:27:45;;;;;;;1560.47;357.37;;;;;;;13.49;48.14;70088.97;5403194;32;33621;-82
2024/01/25 12:30:48;;;;;;;1363.28;331.80;;;;;;;13.45;47.75;70027.91;5415629;32;34279;-82
2024/01/25 12:33:51;;;;;;;1219.80;328.25;;;;;;;14.33;46.10;70128.16;5390893;32;34671;-82
2024/01/25 12:36:55;;;;;;;1577.82;372.02;;;;;;;14.91;44.05;70194.66;5399323;32;34410;-82
2024/01/25 12:40:00;;;;;;;1429.68;353.50;;;;;;;14.06;44.68;70097.84;5396691;32;34065;-82
2024/01/25 12:43:04;;;;;;;1309.30;326.30;;;;;;;14.93;43.89;70193.72;5416420;32;34267;-83
2024/01/25 12:46:07;;;;;;;1469.05;318.50;;;;;;;15.29;42.24;70237.84;5391055;32;33508;-83
2024/01/25 12:49:28;;;;;;;1258.95;313.27;;;;;;;14.99;42.06;70200.72;5419151;32;33875;-83
2024/01/25 12:52:32;;;;;;;1052.82;269.30;;;;;;;15.12;42.11;70215.31;5403718;32;34352;-83
2024/01/25 12:55:36;;;;;;;1099.65;303.08;;;;;;;15.09;41.86;70214.50;5403134;32;33972;-82
2024/01/25 12:58:39;;;;;;;1271.18;279.75;;;;;;;15.63;40.77;70276.94;5379665;32;33580;-82
2024/01/25 13:01:43;;;;;;;1268.60;267.33;;;;;;;15.54;40.26;70322.41;5396979;32;33468;-82
2024/01/25 13:04:46;;;;;;;939.50;221.32;;;;;;;16.20;39.76;70341.75;5403549;32;33492;-82
2024/01/25 13:07:50;;;;;;;1181.78;288.87;;;;;;;15.84;39.27;70300.31;5390869;32;34006;-81
2024/01/25 13:10:53;;;;;;;1526.78;385.27;;;;;;;14.50;41.83;70148.00;5417138;32;33915;-81
2024/01/25 13:13:57;;;;;;;833.87;217.35;;;;;;;14.16;42.78;70108.38;5398773;32;32497;-81
2024/01/25 13:16:59;;;;;;;1210.43;306.52;;;;;;;13.53;44.88;70033.97;5416245;32;34871;-85
2024/01/25 13:20:07;;;;;;;1509.20;356.23;;;;;;;12.32;48.29;69896.53;5417545;32;34462;-85
2024/01/25 13:23:10;;;;;;;1495.18;392.27;;;;;;;11.04;52.53;69751.06;5416650;32;34007;-86
2024/01/25 13:26:16;;;;;;;1549.07;397.33;;;;;;;10.36;54.97;69675.88;5413932;32;34610;-83
2024/01/25 13:29:19;;;;;;;1787.88;418.75;;;;;;;10.07;56.85;69640.63;5406527;32;35394;-82
2024/01/25 13:32:23;;;;;;;1955.05;434.37;;;;;;;9.83;58.14;69612.75;5416257;32;34101;-82
2024/01/25 13:35:26;;;;;;;1719.50;414.00;;;;;;;9.58;60.21;69587.53;5414945;32;34596;-82
2024/01/25 13:38:32;;;;;;;1903.97;474.15;;;;;;;9.47;59.55;69572.09;5384196;33;34576;-81
2024/01/25 13:41:34;;;;;;;1899.70;410.08;;;;;;;9.30;62.03;69550.28;5401735;32;33626;-80
2024/01/25 13:44:40;;;;;;;1859.78;442.08;;;;;;;9.24;61.46;69545.97;5389886;32;33657;-81
2024/01/25 13:47:44;;;;;;;1999.90;491.62;;;;;;;9.24;62.62;69543.91;5417650;32;34742;-82
2024/01/25 13:50:48;;;;;;;1990.38;448.08;;;;;;;9.20;62.90;69597.88;5402279;32;34471;-82
2024/01/25 13:53:51;;;;;;;1972.70;434.92;;;;;;;9.23;61.59;69544.81;5401411;32;33633;-81
2024/01/25 13:56:55;;;;;;;1999.90;476.48;;;;;;;9.22;62.61;69544.25;5389622;32;34293;-81
2024/01/25 13:59:58;;;;;;;1999.28;485.80;;;;;;;9.22;62.53;69602.31;5414163;32;34421;-82
2024/01/25 14:03:01;;;;;;;1551.45;385.10;;;;;;;9.22;61.72;69541.56;5392623;32;33905;-82
2024/01/25 14:06:05;;;;;;;1714.75;435.58;;;;;;;9.08;62.86;69527.97;5397720;32;34787;-82
2024/01/25 14:09:08;;;;;;;1999.90;540.42;;;;;;;9.13;62.51;69533.22;5402334;32;34658;-81
2024/01/25 14:12:11;;;;;;;1898.57;416.30;;;;;;;9.10;62.92;69530.31;5401615;32;32965;-81
2024/01/25 14:15:15;;;;;;;1669.75;404.00;;;;;;;9.09;62.80;69585.09;5401535;32;33896;-81
2024/01/25 14:18:18;;;;;;;1999.90;442.63;;;;;;;9.00;63.25;69519.28;5389967;32;33729;-82
2024/01/25 14:21:21;;;;;;;1998.93;442.55;;;;;;;8.89;64.19;69503.84;5401781;32;33940;-83
2024/01/25 14:24:25;;;;;;;1973.10;463.73;;;;;;;8.83;64.69;69502.78;5397499;32;34654;-82
2024/01/25 14:27:28;;;;;;;1999.90;425.08;;;;;;;8.79;64.76;69497.56;5413683;32;33805;-82
2024/01/25 14:30:33;;;;;;;1759.00;419.15;;;;;;;8.82;64.76;69501.63;5401551;32;34784;-82
2024/01/25 14:33:36;;;;;;;1793.40;436.55;;;;;;;8.71;65.76;69485.63;5374823;32;33771;-81
2024/01/25 14:36:42;;;;;;;1988.10;491.00;;;;;;;8.68;65.31;69482.72;5416672;32;33121;-82
2024/01/25 14:39:46;;;;;;;1999.90;474.50;;;;;;;8.62;65.40;69476.31;5406990;32;34537;-81
2024/01/25 14:43:10;;;;;;;1966.03;510.92;;;;;;;8.63;66.10;69536.09;5408395;32;34100;-82
2024/01/25 14:46:13;;;;;;;1999.90;490.15;;;;;;;8.67;65.13;69536.91;5399683;32;33623;-82
2024/01/25 14:49:21;;;;;;;1999.90;470.42;;;;;;;8.65;64.37;69479.22;5388425;32;34467;-82
2024/01/25 14:52:24;;;;;;;1891.22;436.20;;;;;;;8.77;64.37;69495.81;5393217;32;34668;-82
2024/01/25 14:55:28;;;;;;;1949.28;456.10;;;;;;;8.83;63.97;69499.53;5408140;32;33936;-82
2024/01/25 14:58:31;;;;;;;1999.90;475.33;;;;;;;8.90;62.71;69507.09;5417628;32;33506;-82
2024/01/25 15:01:34;;;;;;;1833.15;427.40;;;;;;;8.90;61.94;69507.66;5403254;32;34794;-82
2024/01/25 15:04:37;;;;;;;1999.90;472.87;;;;;;;8.90;63.05;69507.09;5408716;32;33437;-86
2024/01/25 15:07:41;;;;;;;1999.90;551.22;;;;;;;8.82;62.78;69498.38;5417675;32;33523;-86
2024/01/25 15:10:44;;;;;;;1999.90;513.67;;;;;;;8.83;64.06;69500.13;5401324;32;34172;-86
2024/01/25 15:13:48;;;;;;;1823.50;419.10;;;;;;;8.84;63.52;69498.63;5394640;32;33878;-86
2024/01/25 15:16:51;;;;;;;1999.90;495.35;;;;;;;8.70;62.37;69487.69;5390525;32;34443;-82
2024/01/25 15:19:54;;;;;;;1754.57;405.98;;;;;;;8.76;62.07;69492.00;5418497;32;34535;-82
2024/01/25 15:23:00;;;;;;;1769.97;440.75;;;;;;;8.75;62.18;69488.19;5390805;32;34844;-82
2024/01/25 15:26:04;;;;;;;1999.90;431.05;;;;;;;8.66;62.47;69480.41;5402987;32;34924;-82
2024/01/25 15:29:07;;;;;;;1999.90;482.77;;;;;;;8.71;62.32;69542.13;5415189;32;33311;-82
2024/01/25 15:32:11;;;;;;;1999.90;478.25;;;;;;;8.63;63.09;69479.59;5419769;32;33776;-82
2024/01/25 15:35:14;;;;;;;1997.20;468.90;;;;;;;8.63;63.42;69532.84;5429349;32;34305;-81
2024/01/25 15:38:19;;;;;;;1634.20;378.83;;;;;;;8.60;62.14;69476.69;5419845;32;34956;-85
2024/01/25 15:41:22;;;;;;;1999.90;715.95;;;;;;;8.48;62.74;69462.75;5403761;32;34601;-85
2024/01/25 15:44:25;;;;;;;1999.90;483.40;;;;;;;8.46;63.10;69457.78;5416935;32;34088;-85
2024/01/25 15:47:27;;;;;;;1999.90;480.80;;;;;;;8.49;63.14;69460.69;5403160;32;33985;-84
2024/01/25 15:50:30;;;;;;;1921.35;491.65;;;;;;;8.41;63.57;69454.63;5391066;32;34030;-84
2024/01/25 15:53:33;;;;;;;1891.35;385.23;;;;;;;8.34;63.83;69446.50;5407767;32;34030;-84
2024/01/25 15:56:36;;;;;;;1999.90;482.95;;;;;;;8.27;64.22;69436.28;5414129;32;33841;-84
2024/01/25 15:59:39;;;;;;;1999.90;426.08;;;;;;;8.31;64.67;69443.59;5402335;32;34722;-84
2024/01/25 16:02:42;;;;;;;1857.65;426.87;;;;;;;8.23;63.91;69431.06;5416820;32;34554;-84
2024/01/25 16:05:46;;;;;;;1999.90;781.40;;;;;;;8.16;64.35;69423.50;5403843;32;33976;-84
2024/01/25 16:08:49;;;;;;;1999.90;436.88;;;;;;;8.26;64.86;69432.47;5405185;32;34447;-84
2024/01/25 16:11:55;;;;;;;1999.90;496.20;;;;;;;8.12;64.96;69422.13;5432819;32;35378;-85
2024/01/25 16:14:58;;;;;;;1999.90;556.03;;;;;;;8.10;65.59;69419.22;5415580;32;35327;-84
2024/01/25 16:18:04;;;;;;;1952.57;424.15;;;;;;;7.99;66.21;69457.03;5424995;32;34009;-84
2024/01/25 16:21:07;;;;;;;1999.90;482.25;;;;;;;7.94;66.02;69399.16;5411650;32;33987;-84
2024/01/25 16:24:10;;;;;;;1999.90;653.85;;;;;;;7.85;66.59;69441.34;5404891;32;34263;-84
2024/01/25 16:27:13;;;;;;;1999.90;493.60;;;;;;;7.75;67.12;69433.00;5404032;32;34098;-85
2024/01/25 16:30:17;;;;;;;1999.90;521.67;;;;;;;7.63;66.95;69361.13;5404129;32;34629;-84
2024/01/25 16:33:22;;;;;;;1999.90;789.22;;;;;;;7.62;68.00;69364.72;5403787;32;34640;-85
2024/01/25 16:36:25;;;;;;;1999.90;624.80;;;;;;;7.62;67.08;69362.06;5407235;32;35484;-85
2024/01/25 16:39:28;;;;;;;1999.90;540.47;;;;;;;7.47;68.88;69345.84;5427938;32;35180;-85
2024/01/25 16:42:31;;;;;;;1999.90;507.92;;;;;;;7.33;69.44;69329.03;5417290;32;33843;-84
2024/01/25 16:45:35;;;;;;;1999.90;538.10;;;;;;;7.27;70.28;69320.56;5403808;32;33904;-84
2024/01/25 16:48:40;;;;;;;1999.90;490.25;;;;;;;7.27;70.08;69320.00;5404036;32;34384;-85
2024/01/25 16:51:43;;;;;;;1999.90;516.72;;;;;;;7.08;71.87;69300.63;5403878;32;33508;-84
2024/01/25 16:54:47;;;;;;;1999.90;599.58;;;;;;;7.09;71.81;69304.44;5390810;32;33727;-85
2024/01/25 16:57:50;;;;;;;1999.90;563.25;;;;;;;6.99;72.95;69293.41;5418305;32;35532;-85
